Terminal Aerodrome Forecast
Issued by NWS

Home | Current Version | Previous Version | Text Only | Print | Product List | Glossary On
Versions: 1 2 3 4 5 6 7 8 9 10 11 12
000
FTUS45 KABQ 282339
TAFFMN
TAF
KFMN 282339Z 2900/2924 24012G18KT P6SM FEW120
     FM290200 32006KT P6SM SCT120
     FM290700 07006KT P6SM SCT120
     FM291600 12006KT P6SM FEW100 SCT150=

USA.gov is the U.S. government's official web portal to all federal, state and local government web resources and services.